• Join FlightAware (Why Join?)
  • Login
  • US Flag 
03:42PM EST


 

Airport Tracker/Info


-or-


 

Live Flight TrackerFlight Track Log ✈ RPA3161 ✈ 30-Apr-2013 ✈ KBTV - KDCA

Flight Track Log - Related Links

Times and Time Zones

All times are in EDT time to prevent confusion due to time zone crossing. See the RPA3161 flight status page for this flight to view local times or setup timezone preferences in your user account.

Time Position Orientation Groundspeed Altitude Reporting Facility
EDT Latitude Longitude Course Direction KTS MPH feet Rate Location/Type
12:26PM 44.1842 -73.2560 195° South  Level FlightAware Approximate
12:26PM 44.3175 -73.1597 195° South 252 290 8,900  Level Boston Center
12:27PM 44.0895 -73.2915 195° South  Level FlightAware Approximate
12:27PM 44.2356 -73.2339 213° Southwest 277 319 12,400  Level Boston Center
12:28PM 43.9942 -73.3242 194° South  Level FlightAware Approximate
12:28PM 44.1622 -73.3053 215° Southwest 311 358 15,600  Level Boston Center
12:29PM 43.8990 -73.3567 195° South  Level FlightAware Approximate
12:29PM 44.0719 -73.3764 210° Southwest 341 392 18,500  Level Boston Center
12:30PM 43.8043 -73.3923 195° South  Level FlightAware Approximate
12:30PM 43.9742 -73.3892 185° South 351 404 20,900  Level Boston Center
12:31PM 43.7096 -73.4277 195° South  Level FlightAware Approximate
12:31PM 43.8678 -73.3961 183° South 377 434 23,100  Level Boston Center
12:32PM 43.7592 -73.4058 184° South 389 448 25,200 1,920 Climbing Boston Center
12:33PM 43.6550 -73.4100 182° South 406 467 27,000 1,680 Climbing Boston Center
12:34PM 43.5403 -73.4197 184° South 411 473 28,600 1,500 Climbing Boston Center
12:35PM 43.4219 -73.3892 169° South 423 487 30,000 660 Climbing Boston Center
12:36PM 43.2947 -73.3786 177° South 436 502 30,000  Level Boston Center
12:37PM 43.1675 -73.3908 184° South 448 516 30,000  Level Boston Center
12:38PM 43.0236 -73.4086 185° South 475 547 30,000  Level Boston Center
12:39PM 42.8983 -73.4208 184° South 475 547 30,000  Level Boston Center
12:40PM 42.7733 -73.4386 186° South 462 532 30,000  Level Boston Center
12:41PM 42.6439 -73.4506 184° South 462 532 30,000  Level Boston Center
12:42PM 42.5147 -73.4625 184° South 462 532 30,000  Level Boston Center
12:43PM 42.3872 -73.4772 185° South 462 532 30,000  Level Boston Center
12:44PM 42.2747 -73.4783 180° South 462 532 30,000  Level Boston Center
12:45PM 42.1497 -73.4931 185° South 462 532 30,000  Level Boston Center
12:46PM 42.0161 -73.5131 186° South 467 537 30,000  Level Boston Center
12:47PM 41.8867 -73.5278 185° South 467 537 30,000  Level Boston Center
12:48PM 41.7614 -73.5367 183° South 462 532 30,000  Level Boston Center
12:49PM 41.6383 -73.5511 185° South 462 532 30,000  Level Boston Center
12:51PM 41.3908 -73.5753 184° South 451 519 30,000  Level New York Center
12:52PM 41.2753 -73.6147 194° South 446 513 30,000  Level New York Center
12:53PM 41.1953 -73.7297 227° Southwest 413 475 30,000  Level New York Center
12:54PM 41.1236 -73.8506 232° Southwest 413 475 30,000  Level New York Center
12:55PM 41.0494 -73.9736 231° Southwest 421 484 30,000  Level New York Center
12:56PM 40.9772 -74.0994 233° Southwest 427 491 30,000  Level New York Center
12:57PM 40.8942 -74.2297 230° Southwest 427 491 30,000 -780 Level New York Center
12:58PM 40.8219 -74.3469 231° Southwest 432 497 28,500 -1,020 Descending New York Center
12:59PM 40.7494 -74.4689 232° Southwest 432 497 28,000 -300 Descending New York Center
01:00PM 40.6747 -74.5936 232° Southwest 432 497 28,000  Level New York Center
01:01PM 40.6019 -74.7153 232° Southwest 432 497 28,000  Level New York Center
01:02PM 40.5231 -74.8281 227° Southwest 432 497 28,000  Level New York Center
01:03PM 40.4464 -74.9381 228° Southwest 427 491 28,000  Level New York Center
01:04PM 40.3650 -75.0531 227° Southwest 422 486 28,000 -1,020 Level New York Center
01:05PM 40.2881 -75.1625 227° Southwest 427 491 26,000 -2,100 Descending New York Center
01:06PM 40.2111 -75.2692 227° Southwest 422 486 23,800 -2,040 Descending New York Center
01:07PM 40.1361 -75.3756 227° Southwest 417 480 22,000 -900 Descending New York Center
01:08PM 40.0611 -75.4792 227° Southwest 407 468 22,000  Level New York Center
01:09PM 39.9861 -75.5825 227° Southwest 407 468 22,000  Level New York Center
01:10PM 39.9131 -75.6883 228° Southwest 407 468 22,000 -480 Level New York Center
01:11PM 39.8439 -75.7972 230° Southwest 397 457 21,100 -960 Descending New York Center
01:12PM 39.7767 -75.9058 231° Southwest 391 450 20,100 -1,020 Descending New York Center
01:13PM 39.7094 -76.0117 230° Southwest 391 450 19,100 -1,080 Descending New York Center
01:14PM 39.6511 -76.1017 230° Southwest 379 436 18,000 -1,740 Descending New York Center
01:15PM 39.5667 -76.2500 234° Southwest 363 418 15,200 -2,160 Descending Potomac TRACON
01:16PM 39.5000 -76.3333 224° Southwest 361 415 13,400 -1,680 Descending Potomac TRACON
01:17PM 39.4333 -76.4333 229° Southwest 347 399 12,100 -660 Descending Potomac TRACON
01:18PM 39.3667 -76.5000 218° Southwest 347 399 12,100  Level Potomac TRACON
01:19PM 39.2833 -76.5667 212° Southwest 348 400 12,100 -780 Level Potomac TRACON
01:20PM 39.2000 -76.6333 212° Southwest 325 374 10,700 -1,080 Descending Potomac TRACON
01:21PM 39.1500 -76.7000 226° Southwest 289 333 10,100 -360 Descending Potomac TRACON
01:22PM 39.0833 -76.7667 218° Southwest 291 335 10,000 -960 Descending Potomac TRACON
01:23PM 39.0167 -76.8333 218° Southwest 285 328 8,200 -1,860 Descending Potomac TRACON
01:24PM 38.9667 -76.9000 226° Southwest 280 322 6,300 -1,140 Descending Potomac TRACON
01:25PM 38.9000 -76.9500 210° Southwest 262 302 6,000 -660 Descending Potomac TRACON
01:26PM 38.8333 -76.9500 180° South 228 262 5,000 -1,200 Descending Potomac TRACON
01:27PM 38.7833 -76.9500 180° South 216 249 3,600 -1,080 Descending Potomac TRACON
01:28PM 38.7167 -76.9333 169° South 213 245 3,000 -840 Descending Potomac TRACON
01:29PM 38.7000 -77.0000 252° West 240 276 2,100 -1,020 Descending Potomac TRACON